Time;durP1;ratioP1;P1;durP2;ratioP2;P2;SDS_P1;SDS_P2;PMS_P1;PMS_P2;Temp;Humidity;BMP_temperature;BMP_pressure;BME280_temperature;BME280_humidity;BME280_pressure;Samples;Min_cycle;Max_cycle;Signal;HPM_P1;HPM_P2
2022/10/30 00:00:54;;;;;;;22.60;8.48;;;;;;;18.93;58.13;99148.09;5053089;28;20032;-46
2022/10/30 00:03:20;;;;;;;23.13;8.02;;;;;;;19.25;57.22;99136.81;5086776;28;20017;-46
2022/10/30 00:05:48;;;;;;;19.95;6.65;;;;;;;19.36;56.51;99143.09;5054290;28;20029;-46
2022/10/30 00:08:16;;;;;;;23.02;8.35;;;;;;;19.26;56.87;99141.09;5054294;28;20013;-46
2022/10/30 00:10:43;;;;;;;19.38;7.78;;;;;;;19.22;57.01;99139.16;5054228;28;20021;-46
2022/10/30 00:13:09;;;;;;;36.75;29.02;;;;;;;18.93;56.76;99140.09;5052902;28;20116;-46
2022/10/30 00:15:35;;;;;;;26.77;14.68;;;;;;;18.42;57.57;99139.25;5054172;28;20025;-46
2022/10/30 00:18:01;;;;;;;25.63;11.00;;;;;;;18.04;58.63;99140.72;5053821;28;20049;-46
2022/10/30 00:20:27;;;;;;;34.33;18.88;;;;;;;17.92;59.14;99137.31;5052812;28;20040;-46
2022/10/30 00:22:53;;;;;;;111.80;94.43;;;;;;;18.03;59.18;99141.78;5054035;28;20494;-46
2022/10/30 00:25:19;;;;;;;55.42;49.28;;;;;;;18.04;58.96;99132.75;5052681;28;20025;-46
2022/10/30 00:27:45;;;;;;;33.53;25.05;;;;;;;18.01;59.18;99122.63;5052568;28;20556;-46
2022/10/30 00:30:11;;;;;;;17.60;9.70;;;;;;;18.00;59.24;99122.84;5053913;28;20035;-46
2022/10/30 00:32:36;;;;;;;17.23;6.78;;;;;;;17.98;59.34;99122.28;5054104;28;20371;-45
2022/10/30 00:35:02;;;;;;;20.00;6.70;;;;;;;17.84;61.31;99117.25;5052608;28;20108;-46
2022/10/30 00:37:28;;;;;;;16.98;5.97;;;;;;;17.70;60.89;99119.34;5052477;28;20021;-46
2022/10/30 00:39:53;;;;;;;22.25;6.03;;;;;;;17.75;60.65;99119.44;5053654;28;20487;-45
2022/10/30 00:42:19;;;;;;;19.60;7.68;;;;;;;17.84;61.30;99117.25;5053715;28;20017;-46
2022/10/30 00:44:48;;;;;;;24.73;6.35;;;;;;;17.83;60.83;99114.78;5053636;28;20040;-46
2022/10/30 00:47:33;;;;;;;35.22;26.33;;;;;;;17.94;60.79;99116.63;5052780;28;20568;-46
2022/10/30 00:50:08;;;;;;;16.48;11.48;;;;;;;18.11;60.45;99120.16;5052226;28;20025;-46
2022/10/30 00:52:59;;;;;;;38.03;25.50;;;;;;;18.20;59.61;99109.94;5052246;28;20045;-46
2022/10/30 00:55:30;;;;;;;21.75;10.80;;;;;;;18.20;59.42;99111.78;5052132;28;20017;-46
2022/10/30 00:57:58;;;;;;;22.23;11.77;;;;;;;18.24;59.30;99105.75;5052170;28;20538;-46
2022/10/30 01:00:28;;;;;;;26.45;15.57;;;;;;;18.28;58.81;99098.09;5053292;28;20376;-46
2022/10/30 01:02:55;;;;;;;19.75;8.90;;;;;;;18.35;59.02;99091.59;5052022;28;20017;-46
2022/10/30 01:05:25;;;;;;;19.58;10.88;;;;;;;18.42;58.31;99091.44;5085567;28;20402;-46
2022/10/30 01:07:50;;;;;;;17.63;7.55;;;;;;;18.48;58.50;99084.34;5051869;28;20060;-46
2022/10/30 01:10:16;;;;;;;24.05;7.38;;;;;;;18.57;58.11;99077.56;5051857;28;20088;-46
2022/10/30 01:12:45;;;;;;;22.75;7.22;;;;;;;18.64;58.21;99077.41;5053086;28;20053;-46
2022/10/30 01:15:12;;;;;;;19.08;13.35;;;;;;;18.63;57.95;99075.78;5051817;28;20059;-46
2022/10/30 01:17:53;;;;;;;22.70;7.90;;;;;;;18.76;58.19;99064.81;5084938;28;20052;-46
2022/10/30 01:20:44;;;;;;;25.20;9.63;;;;;;;18.79;58.02;99072.31;5085186;28;20452;-46
2022/10/30 01:23:44;;;;;;;24.15;8.23;;;;;;;18.87;57.64;99071.09;5053043;28;20033;-46
2022/10/30 01:26:40;;;;;;;26.05;8.00;;;;;;;18.88;57.74;99070.88;5052937;28;20490;-46
2022/10/30 01:29:36;;;;;;;22.63;8.82;;;;;;;18.96;57.23;99073.09;5052915;28;20017;-46
2022/10/30 01:32:22;;;;;;;14.65;10.25;;;;;;;19.04;56.66;99063.91;5051441;28;20125;-46
2022/10/30 01:35:01;;;;;;;18.20;11.18;;;;;;;19.02;56.68;99073.19;5052773;28;20082;-46
2022/10/30 01:37:45;;;;;;;12.77;7.90;;;;;;;18.85;57.01;99074.00;5051473;28;20057;-46
2022/10/30 01:40:15;;;;;;;23.15;10.25;;;;;;;18.69;57.79;99080.97;5084822;28;20036;-46
2022/10/30 01:42:48;;;;;;;26.38;15.13;;;;;;;18.74;57.98;99088.19;5051258;28;20025;-46
2022/10/30 01:45:56;;;;;;;21.25;7.30;;;;;;;18.70;58.03;99095.03;5052786;28;20427;-46
2022/10/30 01:48:56;;;;;;;16.98;6.95;;;;;;;18.58;58.24;99094.34;5051896;28;20487;-46
2022/10/30 01:51:44;;;;;;;20.10;11.35;;;;;;;18.52;58.10;99088.94;5052455;28;20024;-46
2022/10/30 01:54:35;;;;;;;16.70;9.25;;;;;;;18.39;58.84;99091.94;5052358;28;20017;-46
2022/10/30 01:57:36;;;;;;;13.77;7.60;;;;;;;18.40;59.16;99088.19;5052166;28;20025;-46
2022/10/30 02:00:08;;;;;;;17.40;7.05;;;;;;;18.29;59.32;99083.75;5052199;28;20029;-45
2022/10/30 02:02:34;;;;;;;21.92;7.97;;;;;;;18.32;59.50;99073.47;5052177;28;20029;-46
2022/10/30 02:05:00;;;;;;;18.58;7.65;;;;;;;18.39;59.82;99064.53;5050863;28;20028;-46
2022/10/30 02:07:25;;;;;;;26.40;8.07;;;;;;;18.43;59.67;99068.31;5052112;28;20033;-46
2022/10/30 02:09:53;;;;;;;16.70;6.85;;;;;;;18.42;59.92;99058.75;5052060;28;20033;-46
2022/10/30 02:12:21;;;;;;;21.88;8.57;;;;;;;18.55;59.40;99059.22;5052279;28;20018;-46
2022/10/30 02:14:51;;;;;;;19.45;8.40;;;;;;;18.69;58.92;99053.53;5051995;28;20013;-46
2022/10/30 02:17:17;;;;;;;23.17;13.27;;;;;;;18.61;58.46;99062.72;5050567;28;20041;-46
2022/10/30 02:19:43;;;;;;;18.35;8.23;;;;;;;18.61;59.07;99061.94;5051797;28;20112;-46
2022/10/30 02:22:09;;;;;;;16.77;7.63;;;;;;;18.61;58.99;99062.72;5051909;28;20104;-46
2022/10/30 02:24:35;;;;;;;21.08;8.68;;;;;;;18.73;57.85;99055.50;5084154;28;20082;-46
2022/10/30 02:27:00;;;;;;;12.70;7.53;;;;;;;18.62;57.64;99064.34;5050524;28;20021;-46
2022/10/30 02:29:26;;;;;;;23.50;12.18;;;;;;;18.48;57.86;99052.44;5052071;28;20486;-46
2022/10/30 02:31:52;;;;;;;23.50;14.80;;;;;;;18.41;57.91;99049.97;5067029;28;20568;-46
2022/10/30 02:34:18;;;;;;;17.83;10.10;;;;;;;18.44;57.68;99046.81;5051692;28;20021;-46
2022/10/30 02:36:44;;;;;;;12.75;6.47;;;;;;;18.53;56.81;99040.03;5051711;28;20116;-46
2022/10/30 02:39:09;;;;;;;18.50;8.43;;;;;;;18.53;56.42;99050.69;5051580;28;20024;-46
2022/10/30 02:41:35;;;;;;;15.68;6.38;;;;;;;18.49;56.45;99046.91;5050393;28;20025;-46
2022/10/30 02:44:01;;;;;;;18.02;9.30;;;;;;;18.45;56.63;99044.94;5050346;28;20525;-46
2022/10/30 02:46:26;;;;;;;16.13;6.68;;;;;;;18.32;56.84;99051.41;5083885;28;20063;-46
2022/10/30 02:48:52;;;;;;;10.73;5.47;;;;;;;18.22;57.11;99051.25;5051614;28;20021;-46
2022/10/30 02:51:18;;;;;;;16.27;5.47;;;;;;;18.10;56.73;99046.00;5083871;28;20071;-46
2022/10/30 02:53:43;;;;;;;13.90;5.63;;;;;;;17.95;57.46;99054.53;5050318;28;20029;-46
2022/10/30 02:56:13;;;;;;;17.42;7.07;;;;;;;17.76;57.61;99054.69;5051547;28;20028;-46
2022/10/30 02:58:39;;;;;;;12.75;7.75;;;;;;;17.70;58.12;99052.97;5051455;28;20053;-46
2022/10/30 03:01:10;;;;;;;20.55;7.00;;;;;;;17.67;58.27;99047.38;5083711;28;20108;-46
2022/10/30 03:03:36;;;;;;;10.98;6.10;;;;;;;17.65;57.93;99049.44;5051529;28;20075;-46
2022/10/30 03:06:07;;;;;;;13.05;5.25;;;;;;;17.58;57.60;99053.03;5050099;28;20029;-45
2022/10/30 03:08:33;;;;;;;14.20;6.72;;;;;;;17.58;57.39;99045.06;5050206;28;20029;-46
2022/10/30 03:11:08;;;;;;;13.15;7.25;;;;;;;17.59;57.38;99051.19;5087459;28;20440;-45
2022/10/30 03:13:35;;;;;;;11.48;6.57;;;;;;;17.65;56.68;99044.16;5055482;28;20037;-46
2022/10/30 03:16:03;;;;;;;19.20;15.63;;;;;;;17.73;56.53;99046.41;5055067;28;20051;-46
2022/10/30 03:18:29;;;;;;;12.70;7.82;;;;;;;17.81;56.72;99048.69;5055252;28;20507;-46
2022/10/30 03:21:04;;;;;;;16.00;6.22;;;;;;;17.87;56.78;99046.97;5055259;28;20029;-46
2022/10/30 03:23:30;;;;;;;;;;;;;;;17.96;55.57;99046.31;5055870;28;20048;-46
2022/10/30 03:25:57;;;;;;;22.98;15.73;;;;;;;18.02;55.43;99044.53;5055165;28;20405;-46
2022/10/30 03:28:25;;;;;;;133.80;92.47;;;;;;;18.05;54.91;99049.38;5053793;28;20028;-46
2022/10/30 03:30:58;;;;;;;167.13;108.15;;;;;;;18.14;54.68;99041.81;5053694;28;20432;-46
2022/10/30 03:33:23;;;;;;;20.85;16.08;;;;;;;18.15;54.41;99056.72;5055047;28;20083;-46
2022/10/30 03:35:49;;;;;;;21.15;15.07;;;;;;;18.08;54.82;99046.22;5053626;28;20522;-46
2022/10/30 03:38:15;;;;;;;19.15;7.53;;;;;;;18.00;54.97;99048.50;5053538;28;20053;-46
2022/10/30 03:40:41;;;;;;;12.73;7.43;;;;;;;17.95;55.62;99051.88;5055120;28;20056;-46
2022/10/30 03:43:07;;;;;;;13.13;7.63;;;;;;;17.90;55.45;99055.22;5053586;28;20346;-46
2022/10/30 03:45:34;;;;;;;17.98;8.88;;;;;;;17.90;55.83;99043.81;5053465;28;20435;-46
2022/10/30 03:48:01;;;;;;;17.98;10.43;;;;;;;17.86;55.15;99054.09;5053551;28;20025;-46
2022/10/30 03:50:27;;;;;;;10.23;6.75;;;;;;;17.88;55.21;99056.50;5054678;28;20024;-46
2022/10/30 03:52:56;;;;;;;13.13;6.22;;;;;;;17.94;54.77;99051.03;5086935;28;20052;-46
2022/10/30 03:55:23;;;;;;;9.20;4.80;;;;;;;17.96;54.93;99053.47;5053297;28;20075;-46
2022/10/30 03:57:48;;;;;;;13.25;9.40;;;;;;;17.92;54.75;99060.31;5054559;28;20036;-46
2022/10/30 04:00:16;;;;;;;10.88;6.78;;;;;;;17.87;54.97;99063.69;5054415;28;20387;-46
2022/10/30 04:02:50;;;;;;;16.35;7.35;;;;;;;17.91;54.48;99061.38;5054453;28;20033;-46
2022/10/30 04:05:19;;;;;;;14.10;6.15;;;;;;;17.89;54.33;99066.91;5054437;28;20021;-46
2022/10/30 04:07:44;;;;;;;9.70;4.65;;;;;;;17.95;54.49;99071.25;5054321;28;20036;-46
2022/10/30 04:10:11;;;;;;;17.55;7.25;;;;;;;17.94;54.33;99074.16;5054340;28;20024;-46
2022/10/30 04:12:37;;;;;;;14.25;7.20;;;;;;;17.86;54.43;99074.53;5052942;28;20033;-46
2022/10/30 04:15:05;;;;;;;16.15;5.20;;;;;;;17.87;54.42;99070.84;5054233;28;20071;-46
2022/10/30 04:17:30;;;;;;;12.80;5.50;;;;;;;17.87;54.81;99071.66;5053959;28;20055;-46
2022/10/30 04:19:56;;;;;;;19.88;11.65;;;;;;;17.88;55.04;99067.94;5086214;28;20025;-46
2022/10/30 04:22:22;;;;;;;17.48;5.93;;;;;;;17.94;55.02;99074.94;5052969;28;20025;-46
2022/10/30 04:24:48;;;;;;;11.80;5.40;;;;;;;17.96;55.17;99074.72;5054330;28;20037;-46
2022/10/30 04:27:14;;;;;;;13.75;6.03;;;;;;;17.98;55.66;99077.94;5054056;28;20021;-46
2022/10/30 04:29:43;;;;;;;12.20;5.55;;;;;;;17.87;56.41;99078.81;5053969;28;20031;-46
2022/10/30 04:32:09;;;;;;;18.27;5.95;;;;;;;17.65;56.73;99082.09;5053834;28;20025;-46
2022/10/30 04:34:35;;;;;;;18.30;6.97;;;;;;;17.59;57.03;99085.69;5054083;28;20044;-46
2022/10/30 04:37:01;;;;;;;15.75;6.40;;;;;;;17.65;57.20;99079.44;5052543;28;20510;-46
2022/10/30 04:39:27;;;;;;;11.27;6.63;;;;;;;17.70;57.39;99076.06;5085966;28;20025;-46
2022/10/30 04:41:52;;;;;;;19.65;9.25;;;;;;;17.68;57.61;99075.50;5035848;28;20024;-46
2022/10/30 04:44:18;;;;;;;13.18;6.22;;;;;;;17.74;57.66;99071.91;5053715;28;20553;-46
2022/10/30 04:46:43;;;;;;;20.13;9.05;;;;;;;17.77;57.66;99074.88;5053614;28;20021;-46
2022/10/30 04:49:09;;;;;;;25.77;16.58;;;;;;;17.81;57.47;99074.41;5053633;28;20060;-46
2022/10/30 04:51:35;;;;;;;17.85;7.93;;;;;;;17.81;57.50;99061.94;5052223;28;20115;-46
2022/10/30 04:54:00;;;;;;;18.40;7.60;;;;;;;17.86;57.69;99067.38;5052240;28;20028;-46
2022/10/30 04:56:26;;;;;;;20.55;11.35;;;;;;;17.85;57.60;99062.28;5053447;28;20017;-46
2022/10/30 04:58:52;;;;;;;24.33;13.50;;;;;;;17.78;57.52;99062.41;5053369;28;20032;-46
2022/10/30 05:01:18;;;;;;;19.50;9.57;;;;;;;17.79;57.57;99058.72;5053255;28;20065;-46
2022/10/30 05:03:44;;;;;;;1161.63;845.13;;;;;;;17.80;57.73;99055.00;5053298;28;20079;-46
2022/10/30 05:06:23;;;;;;;168.05;100.38;;;;;;;17.86;57.82;99055.94;5053240;28;20508;-46
2022/10/30 05:08:49;;;;;;;26.58;13.43;;;;;;;17.85;57.94;99054.31;5053273;28;20025;-46
2022/10/30 05:11:16;;;;;;;81.10;57.10;;;;;;;17.89;57.49;99052.84;5053115;28;20028;-46
2022/10/30 05:13:42;;;;;;;39.47;35.63;;;;;;;17.94;56.85;99043.06;5053060;28;20021;-46
2022/10/30 05:16:09;;;;;;;29.58;25.15;;;;;;;17.92;56.96;99049.69;5052533;28;20129;-46
2022/10/30 05:18:35;;;;;;;29.67;21.75;;;;;;;17.88;57.14;99041.38;5053031;28;20032;-46
2022/10/30 05:21:00;;;;;;;97.93;88.30;;;;;;;17.89;56.81;99044.88;5052974;28;20103;-46
2022/10/30 05:23:26;;;;;;;104.28;94.05;;;;;;;17.81;57.06;99046.03;5051640;28;20021;-46
2022/10/30 05:25:51;;;;;;;72.18;63.33;;;;;;;17.82;56.89;99044.16;5052884;28;20053;-45
2022/10/30 05:28:17;;;;;;;20.85;10.63;;;;;;;17.76;57.52;99051.22;5085198;28;20392;-46
2022/10/30 05:30:42;;;;;;;14.27;9.05;;;;;;;17.75;56.85;99042.47;5051465;28;20029;-46
2022/10/30 05:33:10;;;;;;;14.52;6.50;;;;;;;17.77;57.51;99037.72;5052473;28;20609;-46
2022/10/30 05:35:37;;;;;;;22.27;11.50;;;;;;;17.69;57.53;99038.13;5052702;28;20491;-46
2022/10/30 05:38:05;;;;;;;29.38;20.25;;;;;;;17.63;57.68;99030.31;5052644;28;20028;-46
2022/10/30 05:40:32;;;;;;;146.88;96.75;;;;;;;17.63;57.82;99035.63;5051168;28;20028;-46
2022/10/30 05:42:58;;;;;;;46.97;34.58;;;;;;;17.67;58.42;99034.88;5051266;28;20025;-46
2022/10/30 05:45:24;;;;;;;16.70;9.75;;;;;;;17.74;57.67;99038.19;5052731;28;20027;-46
2022/10/30 05:47:59;;;;;;;19.55;10.65;;;;;;;17.66;57.77;99030.59;5051315;28;20021;-46
2022/10/30 05:50:27;;;;;;;19.88;7.88;;;;;;;17.65;58.19;99028.22;5051140;28;20025;-46
2022/10/30 05:52:56;;;;;;;14.07;7.07;;;;;;;17.63;58.13;99035.63;5068058;28;20028;-46
2022/10/30 05:55:22;;;;;;;20.48;7.60;;;;;;;17.53;58.32;99041.53;5052327;28;20025;-46
2022/10/30 05:57:47;;;;;;;21.30;8.60;;;;;;;17.47;58.59;99037.97;5051005;28;20036;-46
2022/10/30 06:00:14;;;;;;;13.63;6.78;;;;;;;17.45;58.55;99034.75;5052257;28;20029;-46
2022/10/30 06:02:40;;;;;;;15.07;7.03;;;;;;;17.43;58.76;99034.19;5050907;28;20116;-46
2022/10/30 06:05:06;;;;;;;23.60;7.97;;;;;;;17.37;59.68;99038.56;5052152;28;20082;-46
2022/10/30 06:07:31;;;;;;;18.73;6.38;;;;;;;17.48;58.45;99028.94;5052197;28;20025;-46
2022/10/30 06:09:57;;;;;;;21.05;9.00;;;;;;;17.63;58.08;99031.09;5052139;28;20048;-46
2022/10/30 06:12:22;;;;;;;15.75;6.95;;;;;;;17.79;57.34;99042.81;5050764;28;20613;-46
2022/10/30 06:14:48;;;;;;;14.85;5.80;;;;;;;17.85;56.76;99038.41;5084457;28;20033;-46
2022/10/30 06:17:13;;;;;;;15.05;8.30;;;;;;;17.97;56.97;99044.47;5051818;28;20072;-46
2022/10/30 06:19:39;;;;;;;22.92;7.10;;;;;;;17.91;56.35;99045.44;5051998;28;20095;-46
2022/10/30 06:22:05;;;;;;;21.17;8.15;;;;;;;17.96;56.44;99045.50;5051952;28;20407;-46
2022/10/30 06:24:30;;;;;;;16.35;7.38;;;;;;;17.93;56.19;99048.66;5051870;28;20024;-46
2022/10/30 06:26:56;;;;;;;17.27;8.02;;;;;;;17.87;56.47;99047.75;5084198;28;20036;-46
2022/10/30 06:29:22;;;;;;;16.48;7.32;;;;;;;17.92;56.29;99044.38;5084087;28;20502;-45
2022/10/30 06:31:47;;;;;;;12.07;6.03;;;;;;;17.93;56.09;99057.41;5051778;28;20033;-46
2022/10/30 06:34:13;;;;;;;24.80;14.15;;;;;;;17.89;56.25;99052.84;5051804;28;20514;-46
2022/10/30 06:36:38;;;;;;;23.08;9.13;;;;;;;17.95;56.35;99044.72;5050416;28;20021;-46
2022/10/30 06:39:04;;;;;;;32.00;23.02;;;;;;;18.07;55.68;99054.44;5050367;28;20021;-46
2022/10/30 06:41:29;;;;;;;121.20;86.88;;;;;;;18.15;55.79;99054.06;5050302;28;20021;-45
2022/10/30 06:43:55;;;;;;;29.67;20.80;;;;;;;18.32;55.50;99054.06;5051013;28;20435;-46
2022/10/30 06:46:21;;;;;;;33.30;21.73;;;;;;;18.50;55.50;99048.50;5050273;28;20025;-45
2022/10/30 06:48:47;;;;;;;60.10;42.25;;;;;;;18.48;55.29;99050.59;5051541;28;20100;-46
2022/10/30 06:51:15;;;;;;;76.07;54.38;;;;;;;18.53;54.60;99052.50;5051844;28;20104;-45
2022/10/30 06:53:40;;;;;;;39.15;19.58;;;;;;;18.57;55.12;99056.28;5051552;28;20031;-46
2022/10/30 06:56:08;;;;;;;127.43;85.82;;;;;;;18.60;54.42;99052.38;5050264;28;20029;-46
2022/10/30 06:58:37;;;;;;;30.13;18.30;;;;;;;18.53;54.17;99058.66;5051648;28;20455;-46
2022/10/30 07:01:07;;;;;;;46.10;38.28;;;;;;;18.54;54.27;99056.78;5082728;28;20036;-46
2022/10/30 07:03:32;;;;;;;24.92;18.35;;;;;;;18.58;54.05;99057.13;5051502;28;20021;-46
2022/10/30 07:05:58;;;;;;;63.35;44.72;;;;;;;18.67;53.86;99063.63;5050145;28;20094;-46
2022/10/30 07:08:24;;;;;;;76.68;52.58;;;;;;;18.73;53.20;99057.31;5051459;28;20438;-46
2022/10/30 07:10:50;;;;;;;208.35;142.00;;;;;;;18.75;52.65;99056.03;5050079;28;20029;-46
2022/10/30 07:13:16;;;;;;;86.10;56.55;;;;;;;18.81;52.67;99059.59;5051359;28;20032;-45
2022/10/30 07:15:41;;;;;;;18.92;11.48;;;;;;;18.86;52.75;99058.88;5051314;28;20116;-46
2022/10/30 07:18:09;;;;;;;19.70;7.43;;;;;;;18.86;52.36;99058.88;5051185;28;20049;-46
2022/10/30 07:20:35;;;;;;;13.18;6.38;;;;;;;18.93;52.30;99073.63;5051231;28;20567;-46
2022/10/30 07:23:02;;;;;;;16.50;6.43;;;;;;;18.98;52.30;99072.88;5051344;28;20052;-46
2022/10/30 07:25:29;;;;;;;15.50;6.90;;;;;;;19.16;51.94;99077.88;5049973;28;20033;-46
2022/10/30 07:27:55;;;;;;;18.67;7.22;;;;;;;19.54;50.71;99076.22;5049976;28;20059;-46
2022/10/30 07:30:24;;;;;;;16.17;8.95;;;;;;;20.04;49.69;99079.69;5083473;28;20041;-46
2022/10/30 07:33:00;;;;;;;16.45;7.45;;;;;;;20.40;48.68;99074.63;5051191;28;20029;-46
2022/10/30 07:35:27;;;;;;;20.83;7.40;;;;;;;20.39;48.32;99080.25;5051472;28;20048;-46
2022/10/30 07:37:53;;;;;;;18.10;7.13;;;;;;;20.52;47.91;99075.28;5083414;28;20025;-46
2022/10/30 07:40:19;;;;;;;13.05;5.35;;;;;;;20.75;47.04;99089.31;5050981;28;20028;-46
2022/10/30 07:42:45;;;;;;;24.23;6.97;;;;;;;20.99;46.26;99084.41;5033247;28;20028;-46
2022/10/30 07:45:10;;;;;;;16.63;5.90;;;;;;;21.07;45.97;99075.91;5051080;28;20078;-46
2022/10/30 07:47:43;;;;;;;14.95;5.38;;;;;;;21.19;45.63;99080.22;5051079;28;20029;-46
2022/10/30 07:50:10;;;;;;;18.17;5.93;;;;;;;21.38;45.46;99077.91;5051023;28;20035;-46
2022/10/30 07:52:35;;;;;;;16.48;7.63;;;;;;;21.64;44.91;99087.63;5051029;28;20037;-46
2022/10/30 07:55:02;;;;;;;14.95;5.70;;;;;;;21.98;44.10;99084.50;5033622;28;20024;-46
2022/10/30 07:57:34;;;;;;;15.30;5.68;;;;;;;22.07;43.43;99082.91;5054599;28;20112;-46
2022/10/30 07:59:59;;;;;;;196.32;173.48;;;;;;;22.08;44.03;99091.72;5054569;28;20102;-46
2022/10/30 08:02:25;;;;;;;536.28;421.30;;;;;;;22.26;43.82;99096.56;5054435;28;20076;-46
2022/10/30 08:04:50;;;;;;;250.82;222.98;;;;;;;22.64;42.09;99089.06;5054433;28;20024;-46
2022/10/30 08:07:16;;;;;;;35.90;23.55;;;;;;;22.91;42.02;99088.72;5054412;28;20495;-46
2022/10/30 08:09:42;;;;;;;23.38;9.23;;;;;;;23.37;41.27;99121.84;5054367;28;20067;-46
2022/10/30 08:12:07;;;;;;;15.95;6.93;;;;;;;23.87;39.39;99101.25;5086868;28;20036;-46
2022/10/30 08:14:33;;;;;;;19.38;5.57;;;;;;;24.09;38.97;99100.84;5086609;28;20514;-46
2022/10/30 08:16:59;;;;;;;15.95;5.53;;;;;;;24.52;38.01;99101.84;5053930;28;20045;-46
2022/10/30 08:19:25;;;;;;;11.80;4.72;;;;;;;24.37;38.50;99095.78;5054129;28;20027;-46
2022/10/30 08:21:50;;;;;;;15.20;4.78;;;;;;;24.34;38.57;99105.22;5054152;28;20027;-46
2022/10/30 08:24:16;;;;;;;11.80;4.13;;;;;;;24.54;37.93;99095.44;5054283;28;20079;-46
2022/10/30 08:26:41;;;;;;;12.27;4.43;;;;;;;24.84;37.63;99097.81;5054017;28;20036;-46
2022/10/30 08:29:07;;;;;;;12.63;5.25;;;;;;;24.81;37.72;99092.19;5052655;28;20055;-46
2022/10/30 08:31:33;;;;;;;17.35;5.05;;;;;;;24.92;37.61;99097.19;5086145;28;20065;-46
2022/10/30 08:33:59;;;;;;;17.17;5.25;;;;;;;25.05;37.27;99098.41;5053848;28;20091;-46
2022/10/30 08:36:24;;;;;;;19.85;4.75;;;;;;;24.91;37.80;99098.28;5053858;28;20376;-46
2022/10/30 08:38:50;;;;;;;9.93;4.53;;;;;;;25.07;36.93;99101.59;5053760;28;20070;-46
2022/10/30 08:41:15;;;;;;;15.13;4.68;;;;;;;25.12;37.32;99100.75;5086015;28;20086;-46
2022/10/30 08:43:41;;;;;;;16.38;4.88;;;;;;;25.52;36.37;99095.97;5052408;28;20028;-46
2022/10/30 08:46:07;;;;;;;16.48;4.78;;;;;;;25.38;36.61;99111.22;5053677;28;20032;-46
2022/10/30 08:48:32;;;;;;;14.63;4.82;;;;;;;25.56;36.59;99097.00;5053692;28;20036;-46
2022/10/30 08:51:00;;;;;;;15.25;4.57;;;;;;;25.63;36.22;99100.13;5053585;28;20029;-46
2022/10/30 08:53:25;;;;;;;13.48;4.35;;;;;;;25.90;35.70;99112.16;5053491;28;20520;-46
2022/10/30 08:55:51;;;;;;;16.77;4.13;;;;;;;26.12;35.67;99106.19;5053542;28;20036;-46
2022/10/30 08:58:17;;;;;;;17.00;4.53;;;;;;;26.45;35.47;99100.81;5053544;28;20024;-46
2022/10/30 09:00:43;;;;;;;15.30;4.38;;;;;;;27.05;33.73;99102.72;5053353;28;20480;-46
2022/10/30 09:03:08;;;;;;;14.40;4.03;;;;;;;27.04;33.27;99101.13;5053405;28;20029;-46
2022/10/30 09:05:36;;;;;;;10.82;3.33;;;;;;;27.35;32.28;99101.34;5053286;28;20096;-46
2022/10/30 09:08:02;;;;;;;15.57;4.18;;;;;;;27.47;32.26;99098.16;5084803;28;20029;-46
2022/10/30 09:10:28;;;;;;;5.10;2.80;;;;;;;27.62;31.75;99100.50;5085619;28;20380;-46
2022/10/30 09:12:58;;;;;;;10.98;3.15;;;;;;;27.56;31.52;99100.91;5085472;28;20033;-46
2022/10/30 09:15:25;;;;;;;13.30;4.05;;;;;;;27.76;32.58;99100.47;5051785;28;20108;-46
2022/10/30 09:17:58;;;;;;;12.45;3.45;;;;;;;28.06;31.28;99099.00;5068206;28;20152;-46
2022/10/30 09:20:25;;;;;;;10.25;3.38;;;;;;;28.16;30.78;99107.97;5053056;28;20029;-47
2022/10/30 09:22:50;;;;;;;12.93;3.80;;;;;;;28.00;30.77;99102.91;5053247;28;20036;-47
2022/10/30 09:25:16;;;;;;;15.27;4.45;;;;;;;28.05;30.77;99105.50;5052901;28;20391;-47
2022/10/30 09:27:44;;;;;;;10.15;3.38;;;;;;;28.38;30.75;99101.75;5084824;28;20127;-47
2022/10/30 09:30:10;;;;;;;14.15;3.38;;;;;;;28.69;29.95;99099.09;5052827;28;20116;-47
2022/10/30 09:32:35;;;;;;;11.60;3.70;;;;;;;28.71;29.91;99096.88;5051458;28;20025;-46
2022/10/30 09:35:01;;;;;;;11.10;3.00;;;;;;;28.31;31.17;99110.28;5052756;28;20028;-46
2022/10/30 09:37:27;;;;;;;13.27;3.67;;;;;;;28.36;30.79;99101.28;5051506;28;20098;-46
2022/10/30 09:39:53;;;;;;;13.85;3.58;;;;;;;28.28;30.16;99097.41;5084864;28;20024;-47
2022/10/30 09:42:27;;;;;;;8.85;3.55;;;;;;;28.19;30.67;99110.03;5052536;28;20025;-46
2022/10/30 09:45:08;;;;;;;7.45;2.63;;;;;;;27.94;29.86;99101.44;5052620;28;20031;-46
2022/10/30 09:48:02;;;;;;;7.05;3.00;;;;;;;28.16;30.20;99110.66;5052596;28;20053;-46
2022/10/30 09:50:31;;;;;;;16.65;5.10;;;;;;;28.47;29.09;99108.81;5051156;28;20475;-46
2022/10/30 09:53:09;;;;;;;16.15;7.57;;;;;;;28.44;29.28;99105.94;5052492;28;20457;-47
2022/10/30 09:56:01;;;;;;;18.30;8.15;;;;;;;28.91;28.30;99103.63;5084568;28;20491;-47
2022/10/30 09:58:37;;;;;;;23.23;4.28;;;;;;;28.71;28.99;99110.38;5052344;28;20503;-47
2022/10/30 10:01:20;;;;;;;7.70;3.42;;;;;;;28.65;28.65;99107.03;5052352;28;20029;-46
2022/10/30 10:04:04;;;;;;;11.77;3.17;;;;;;;28.59;28.58;99107.47;5052317;28;20029;-47
2022/10/30 10:06:32;;;;;;;10.75;3.25;;;;;;;28.54;29.03;99113.78;5052247;28;20029;-47
2022/10/30 10:09:16;;;;;;;6.90;2.90;;;;;;;28.95;28.82;99110.00;5052125;28;20044;-47
2022/10/30 10:11:50;;;;;;;13.45;3.10;;;;;;;29.13;27.63;99100.09;5052148;28;20025;-47
2022/10/30 10:14:25;;;;;;;10.00;2.92;;;;;;;29.12;28.36;99113.91;5050802;28;20041;-47
2022/10/30 10:16:52;;;;;;;6.95;2.40;;;;;;;29.08;28.39;99116.44;5084047;28;20041;-47
2022/10/30 10:19:26;;;;;;;13.85;3.15;;;;;;;28.81;28.46;99114.72;5083250;28;20029;-47
2022/10/30 10:21:56;;;;;;;7.25;2.17;;;;;;;28.76;27.84;99117.56;5051987;28;20394;-47
2022/10/30 10:24:28;;;;;;;12.68;3.22;;;;;;;28.85;28.21;99121.09;5084144;28;20427;-46
2022/10/30 10:27:14;;;;;;;6.88;2.40;;;;;;;29.34;27.50;99129.25;5084157;28;20079;-47
2022/10/30 10:30:07;;;;;;;6.18;2.40;;;;;;;29.08;27.21;99117.22;5051904;28;20544;-47
2022/10/30 10:32:59;;;;;;;7.80;2.92;;;;;;;29.01;26.80;99126.88;5051846;28;20029;-47
2022/10/30 10:35:44;;;;;;;4.78;2.13;;;;;;;28.48;26.88;99115.78;5051838;28;20098;-46
2022/10/30 10:38:43;;;;;;;5.35;2.30;;;;;;;27.98;27.83;99124.00;5051761;28;20025;-46
2022/10/30 10:41:29;;;;;;;11.15;2.50;;;;;;;27.73;28.53;99122.66;5083955;28;20061;-46
2022/10/30 10:44:33;;;;;;;9.63;3.45;;;;;;;27.77;29.04;99125.53;5051716;28;20036;-46
2022/10/30 10:47:36;;;;;;;12.18;2.50;;;;;;;27.99;28.83;99114.00;5051675;28;20021;-46
2022/10/30 10:50:29;;;;;;;11.75;2.40;;;;;;;28.15;28.77;99111.75;5051604;28;20025;-46
2022/10/30 10:53:00;;;;;;;12.60;2.30;;;;;;;28.31;27.97;99104.88;5051689;28;20032;-47
2022/10/30 10:55:31;;;;;;;11.07;2.70;;;;;;;28.19;28.21;99102.75;5051655;28;20103;-47
2022/10/30 10:58:05;;;;;;;10.43;2.65;;;;;;;28.36;28.79;99112.06;5051692;28;20029;-46
2022/10/30 11:00:31;;;;;;;12.90;2.85;;;;;;;28.63;28.20;99111.13;5051520;28;20056;-47
2022/10/30 11:03:06;;;;;;;8.13;2.47;;;;;;;28.57;27.91;99101.56;5083733;28;20499;-47
2022/10/30 11:05:37;;;;;;;;;;;;;;;28.61;28.40;99103.34;5084214;28;20036;-46
2022/10/30 11:08:34;;;;;;;10.82;2.47;;;;;;;28.89;28.13;99095.06;5050200;28;19909;-47
2022/10/30 11:11:02;;;;;;;6.32;2.80;;;;;;;29.18;28.00;99105.38;5051087;28;20037;-47
2022/10/30 11:13:33;;;;;;;11.90;2.75;;;;;;;29.51;27.15;99102.25;5051742;28;20139;-47
2022/10/30 11:16:14;;;;;;;8.77;2.40;;;;;;;29.63;27.26;99094.31;5083522;28;20067;-48
2022/10/30 11:18:41;;;;;;;11.55;3.05;;;;;;;29.95;26.85;99097.69;5083662;28;20029;-47
2022/10/30 11:21:10;;;;;;;7.13;2.67;;;;;;;29.85;26.69;99087.19;5083651;28;20036;-46
2022/10/30 11:23:45;;;;;;;9.52;2.63;;;;;;;29.34;27.47;99096.81;5051392;28;20017;-47
2022/10/30 11:26:16;;;;;;;11.52;3.35;;;;;;;29.22;28.04;99090.13;5051204;28;20032;-47
2022/10/30 11:29:12;;;;;;;10.52;3.22;;;;;;;29.63;27.69;99088.09;5083494;28;20399;-47
2022/10/30 11:31:41;;;;;;;11.30;3.13;;;;;;;29.52;27.88;99082.22;5052157;28;20052;-47
2022/10/30 11:34:19;;;;;;;12.68;2.78;;;;;;;29.64;27.64;99086.97;5055030;28;20075;-47
2022/10/30 11:36:52;;;;;;;6.95;2.70;;;;;;;29.86;27.78;99080.66;5087346;28;20119;-47